createdAt,value
2023-05-20T00:01:33.574Z,39.60
2023-05-20T00:04:09.647Z,39.70
2023-05-20T00:06:45.769Z,39.90
2023-05-20T00:09:21.656Z,39.90
2023-05-20T00:11:57.577Z,40.00
2023-05-20T00:14:33.498Z,40.00
2023-05-20T00:17:09.420Z,40.20
2023-05-20T00:19:45.344Z,40.30
2023-05-20T00:22:21.589Z,40.50
2023-05-20T00:24:57.469Z,40.80
2023-05-20T00:27:33.391Z,40.90
2023-05-20T00:30:10.821Z,41.00
2023-05-20T00:32:48.082Z,41.10
2023-05-20T00:35:24.188Z,41.20
2023-05-20T00:38:00.136Z,41.40
2023-05-20T00:40:36.114Z,41.50
2023-05-20T00:43:12.232Z,41.60
2023-05-20T00:45:48.329Z,41.80
2023-05-20T00:48:24.382Z,41.90
2023-05-20T00:51:01.092Z,42.00
2023-05-20T00:53:37.239Z,42.00
2023-05-20T00:56:13.607Z,42.60
2023-05-20T00:58:50.927Z,42.30
2023-05-20T01:01:26.874Z,42.30
2023-05-20T01:04:03.126Z,42.30
2023-05-20T01:06:40.105Z,42.30
2023-05-20T01:09:16.069Z,42.20
2023-05-20T01:12:04.225Z,42.20
2023-05-20T01:15:11.989Z,42.30
2023-05-20T01:17:53.083Z,42.20
2023-05-20T01:20:32.454Z,42.20
2023-05-20T01:23:09.563Z,42.30
2023-05-20T01:25:45.442Z,42.30
2023-05-20T01:28:23.396Z,42.40
2023-05-20T01:31:04.111Z,42.30
2023-05-20T01:33:41.104Z,42.50
2023-05-20T01:36:18.688Z,42.40
2023-05-20T01:38:56.140Z,42.50
2023-05-20T01:41:34.458Z,42.50
2023-05-20T01:44:10.533Z,42.50
2023-05-20T01:46:50.862Z,42.70
2023-05-20T01:49:27.013Z,42.70
2023-05-20T01:52:03.391Z,42.80
2023-05-20T01:54:39.332Z,42.90
2023-05-20T01:57:15.505Z,43.20
2023-05-20T01:59:51.928Z,43.20
2023-05-20T02:02:28.015Z,43.30
2023-05-20T02:05:04.270Z,43.40
2023-05-20T02:07:40.168Z,43.50
2023-05-20T02:10:16.212Z,43.60
2023-05-20T02:12:52.181Z,43.70
2023-05-20T02:15:28.116Z,43.80
2023-05-20T02:18:06.199Z,43.90
2023-05-20T02:20:42.657Z,44.00
2023-05-20T02:23:18.610Z,44.20
2023-05-20T02:25:54.491Z,44.20
2023-05-20T02:28:30.378Z,44.40
2023-05-20T02:31:06.516Z,44.60
2023-05-20T02:33:42.483Z,44.60
2023-05-20T02:36:18.550Z,44.80
2023-05-20T02:38:56.778Z,44.90
2023-05-20T02:41:32.719Z,45.00
2023-05-20T02:44:08.697Z,45.40
2023-05-20T02:46:44.636Z,45.50
2023-05-20T02:49:20.697Z,45.60
2023-05-20T02:51:56.920Z,45.80
2023-05-20T02:54:33.039Z,46.10
2023-05-20T02:57:08.984Z,46.30
2023-05-20T02:59:46.016Z,46.50
2023-05-20T03:02:23.464Z,46.60
2023-05-20T03:04:59.698Z,46.80
2023-05-20T03:07:37.080Z,46.90
2023-05-20T03:10:16.046Z,47.00
2023-05-20T03:12:53.236Z,47.20
2023-05-20T03:15:29.163Z,47.30
2023-05-20T03:18:06.434Z,47.20
2023-05-20T03:20:42.805Z,47.20
2023-05-20T03:23:18.895Z,47.30
2023-05-20T03:25:55.878Z,47.40
2023-05-20T03:28:31.793Z,47.60
2023-05-20T03:31:07.766Z,47.60
2023-05-20T03:33:45.470Z,47.50
2023-05-20T03:36:21.578Z,47.60
2023-05-20T03:38:57.880Z,47.80
2023-05-20T03:41:33.760Z,48.00
2023-05-20T03:44:09.733Z,48.20
2023-05-20T03:46:46.108Z,48.40
2023-05-20T03:49:22.926Z,48.40
2023-05-20T03:51:58.819Z,48.70
2023-05-20T03:54:36.182Z,48.90
2023-05-20T03:57:12.642Z,49.00
2023-05-20T03:59:48.564Z,49.00
2023-05-20T04:02:24.636Z,49.20
2023-05-20T04:05:02.285Z,49.40
2023-05-20T04:07:38.962Z,49.40
2023-05-20T04:10:20.460Z,49.50
2023-05-20T04:12:56.610Z,49.50
2023-05-20T04:15:36.873Z,49.60
2023-05-20T04:18:13.815Z,49.70
2023-05-20T04:20:56.392Z,50.00
2023-05-20T04:23:32.967Z,49.50
2023-05-20T04:26:08.949Z,49.50
2023-05-20T04:28:48.637Z,49.40
2023-05-20T04:31:28.362Z,49.40
2023-05-20T04:34:04.426Z,49.40
2023-05-20T04:36:40.747Z,49.30
2023-05-20T04:39:20.484Z,49.30
2023-05-20T04:42:00.607Z,49.30
2023-05-20T04:44:36.907Z,49.10
2023-05-20T04:47:12.881Z,49.00
2023-05-20T04:49:50.288Z,48.90
2023-05-20T04:52:26.680Z,48.70
2023-05-20T04:55:03.045Z,48.50
2023-05-20T04:57:43.611Z,48.60
2023-05-20T05:00:19.634Z,48.70
2023-05-20T05:02:56.368Z,48.70
2023-05-20T05:05:32.610Z,48.60
2023-05-20T05:08:11.535Z,48.70
2023-05-20T05:10:52.982Z,48.70
2023-05-20T05:13:31.105Z,48.80
2023-05-20T05:16:07.374Z,48.80
2023-05-20T05:18:44.223Z,48.60
2023-05-20T05:21:20.706Z,48.10
2023-05-20T05:23:58.809Z,47.40
2023-05-20T05:26:35.075Z,46.90
2023-05-20T05:29:11.801Z,46.30
2023-05-20T05:31:48.459Z,45.50
2023-05-20T05:34:24.587Z,44.60
2023-05-20T05:37:00.965Z,44.30
2023-05-20T05:39:37.823Z,44.00
2023-05-20T05:42:14.715Z,43.80
2023-05-20T05:44:51.925Z,43.80
2023-05-20T05:47:32.796Z,43.70
2023-05-20T05:50:10.447Z,43.40
2023-05-20T05:52:47.217Z,43.10
2023-05-20T05:55:24.291Z,42.70
2023-05-20T05:58:00.411Z,42.60
2023-05-20T06:00:38.222Z,42.30
2023-05-20T06:03:14.441Z,42.00
2023-05-20T06:05:50.491Z,42.00
2023-05-20T06:08:29.467Z,41.80
2023-05-20T06:11:05.596Z,41.70
2023-05-20T06:13:41.651Z,41.70
2023-05-20T06:16:18.813Z,41.60
2023-05-20T06:18:57.247Z,41.60
2023-05-20T06:21:33.413Z,41.30
2023-05-20T06:24:09.549Z,41.00
2023-05-20T06:26:46.249Z,40.70
2023-05-20T06:29:22.227Z,40.70
2023-05-20T06:31:58.263Z,40.90
2023-05-20T06:34:34.306Z,40.90
2023-05-20T06:37:11.372Z,41.00
2023-05-20T06:39:51.375Z,41.10
2023-05-20T06:42:27.534Z,41.20
2023-05-20T06:45:13.966Z,41.30
2023-05-20T06:47:54.170Z,41.40
2023-05-20T06:50:30.115Z,41.30
2023-05-20T06:53:07.043Z,41.20
2023-05-20T06:55:42.979Z,40.90
2023-05-20T06:58:19.814Z,40.70
2023-05-20T07:00:55.758Z,40.50
2023-05-20T07:03:32.185Z,40.10
2023-05-20T07:06:08.161Z,39.60
2023-05-20T07:08:44.728Z,39.70
2023-05-20T07:11:23.145Z,39.50
2023-05-20T07:13:59.070Z,39.40
2023-05-20T07:16:36.808Z,39.20
2023-05-20T07:19:12.860Z,39.10
2023-05-20T07:21:49.955Z,38.90
2023-05-20T07:24:50.455Z,38.80
2023-05-20T07:27:26.486Z,38.40
2023-05-20T07:30:02.940Z,38.00
2023-05-20T07:32:40.493Z,37.80
2023-05-20T07:35:16.602Z,37.70
2023-05-20T07:37:53.113Z,37.70
2023-05-20T07:40:29.133Z,37.80
2023-05-20T07:43:05.076Z,38.20
2023-05-20T07:45:41.045Z,37.80
2023-05-20T07:48:17.083Z,37.70
2023-05-20T07:50:53.091Z,37.80
2023-05-20T07:53:29.313Z,37.90
2023-05-20T07:56:05.498Z,38.00
2023-05-20T07:58:42.701Z,38.00
2023-05-20T08:01:20.198Z,38.00
2023-05-20T08:03:56.351Z,37.80
2023-05-20T08:06:35.307Z,37.40
2023-05-20T08:09:16.481Z,37.30
2023-05-20T08:11:57.442Z,37.00
2023-05-20T08:14:33.391Z,37.10
2023-05-20T08:17:09.386Z,37.20
2023-05-20T08:19:46.138Z,37.00
2023-05-20T08:22:23.414Z,36.60
2023-05-20T08:24:59.417Z,36.60
2023-05-20T08:27:37.306Z,36.40
2023-05-20T08:30:14.258Z,36.40
2023-05-20T08:32:50.868Z,36.20
2023-05-20T08:35:27.076Z,36.00
2023-05-20T08:38:03.038Z,35.80
2023-05-20T08:40:39.197Z,35.80
2023-05-20T08:43:15.477Z,35.50
2023-05-20T08:45:54.932Z,35.20
2023-05-20T08:48:34.127Z,35.30
2023-05-20T08:51:13.201Z,35.10
2023-05-20T08:53:49.796Z,34.80
2023-05-20T08:56:28.182Z,34.80
2023-05-20T08:59:06.612Z,34.60
2023-05-20T09:01:43.627Z,34.40
2023-05-20T09:04:19.577Z,34.40
2023-05-20T09:06:55.742Z,33.70
2023-05-20T09:09:34.185Z,33.70
2023-05-20T09:12:11.298Z,33.80
2023-05-20T09:14:47.222Z,33.80
2023-05-20T09:17:24.157Z,33.60
2023-05-20T09:20:00.170Z,33.70
2023-05-20T09:22:36.791Z,33.80
2023-05-20T09:25:13.332Z,33.40
2023-05-20T09:27:50.576Z,33.50
2023-05-20T09:30:26.933Z,32.90
2023-05-20T09:33:05.535Z,33.20
2023-05-20T09:35:42.145Z,33.40
2023-05-20T09:38:19.396Z,33.60
2023-05-20T09:40:55.589Z,33.30
2023-05-20T09:43:31.978Z,33.40
2023-05-20T09:46:08.594Z,33.50
2023-05-20T09:48:44.762Z,33.60
2023-05-20T09:51:22.954Z,33.00
2023-05-20T09:53:59.460Z,32.90
2023-05-20T09:56:35.995Z,33.00
2023-05-20T09:59:13.883Z,32.90
2023-05-20T10:01:49.800Z,32.60
2023-05-20T10:04:26.836Z,32.40
2023-05-20T10:07:37.820Z,32.50
2023-05-20T10:10:53.742Z,32.20
2023-05-20T10:13:48.811Z,32.40
2023-05-20T10:16:54.516Z,32.30
2023-05-20T10:19:34.626Z,31.60
2023-05-20T10:22:14.391Z,31.40
2023-05-20T10:25:00.330Z,31.70
2023-05-20T10:27:44.640Z,31.30
2023-05-20T10:30:22.462Z,31.40
2023-05-20T10:33:05.055Z,31.30
2023-05-20T10:35:50.744Z,31.10
2023-05-20T10:38:26.710Z,31.30
2023-05-20T10:41:13.062Z,31.60
2023-05-20T10:44:03.836Z,31.50
2023-05-20T10:46:54.375Z,31.00
2023-05-20T10:49:36.173Z,30.90
2023-05-20T10:52:13.933Z,30.50
2023-05-20T10:54:58.635Z,30.40
2023-05-20T10:57:34.876Z,30.30
2023-05-20T11:00:11.592Z,30.00
2023-05-20T11:02:49.409Z,30.10
2023-05-20T11:05:27.142Z,30.00
2023-05-20T11:08:13.564Z,30.00
2023-05-20T11:10:59.423Z,29.90
2023-05-20T11:13:36.188Z,30.00
2023-05-20T11:16:12.929Z,29.90
2023-05-20T11:18:50.352Z,30.10
2023-05-20T11:21:26.322Z,30.00
2023-05-20T11:24:02.226Z,29.80
2023-05-20T11:26:38.503Z,29.70
2023-05-20T11:29:14.444Z,29.90
2023-05-20T11:31:53.551Z,30.10
2023-05-20T11:34:40.047Z,30.00
2023-05-20T11:37:17.786Z,29.70
2023-05-20T11:40:11.318Z,29.50
2023-05-20T11:42:47.196Z,29.30
2023-05-20T11:45:23.859Z,29.60
2023-05-20T11:48:02.355Z,29.50
2023-05-20T11:50:44.761Z,29.30
2023-05-20T11:53:22.898Z,29.20
2023-05-20T11:56:00.436Z,29.00
2023-05-20T11:58:36.398Z,29.00
2023-05-20T12:01:21.781Z,29.10
2023-05-20T12:03:59.125Z,28.80
2023-05-20T12:06:37.188Z,29.00
2023-05-20T12:09:13.977Z,28.90
2023-05-20T12:11:50.188Z,28.80
2023-05-20T12:14:26.129Z,28.70
2023-05-20T12:17:02.121Z,28.90
2023-05-20T12:19:39.801Z,28.70
2023-05-20T12:22:17.164Z,28.90
2023-05-20T12:24:54.691Z,28.70
2023-05-20T12:27:31.222Z,29.00
2023-05-20T12:30:09.837Z,28.60
2023-05-20T12:32:47.021Z,28.10
2023-05-20T12:35:38.395Z,28.30
2023-05-20T12:38:14.280Z,28.00
2023-05-20T12:40:50.177Z,27.90
2023-05-20T12:43:26.243Z,28.20
2023-05-20T12:46:02.303Z,28.00
2023-05-20T12:48:38.764Z,28.00
2023-05-20T12:51:15.915Z,27.80
2023-05-20T12:53:51.808Z,28.00
2023-05-20T12:56:27.731Z,28.00
2023-05-20T12:59:03.647Z,28.00
2023-05-20T13:01:40.302Z,27.50
2023-05-20T13:04:16.585Z,27.00
2023-05-20T13:06:52.618Z,27.20
2023-05-20T13:09:28.560Z,27.40
2023-05-20T13:12:04.970Z,27.20
2023-05-20T13:14:41.559Z,27.00
2023-05-20T13:17:17.527Z,27.10
2023-05-20T13:19:53.417Z,26.90
2023-05-20T13:22:29.332Z,26.90
2023-05-20T13:25:06.634Z,26.70
2023-05-20T13:27:42.684Z,26.60
2023-05-20T13:30:18.585Z,26.70
2023-05-20T13:32:55.493Z,26.50
2023-05-20T13:35:32.232Z,26.50
2023-05-20T13:38:08.331Z,26.30
2023-05-20T13:40:44.230Z,26.20
2023-05-20T13:43:20.156Z,26.20
2023-05-20T13:45:56.199Z,26.60
2023-05-20T13:48:33.097Z,26.20
2023-05-20T13:51:09.140Z,26.30
2023-05-20T13:53:45.056Z,26.20
2023-05-20T13:56:21.298Z,25.90
2023-05-20T13:58:57.280Z,26.10
2023-05-20T14:01:33.661Z,26.00
2023-05-20T14:04:09.977Z,26.00
2023-05-20T14:06:46.353Z,25.90
2023-05-20T14:09:22.278Z,25.80
2023-05-20T14:11:58.229Z,25.80
2023-05-20T14:14:34.191Z,26.00
2023-05-20T14:17:10.489Z,26.20
2023-05-20T14:19:46.549Z,26.10
2023-05-20T14:22:22.445Z,26.20
2023-05-20T14:24:58.521Z,26.30
2023-05-20T14:27:34.868Z,26.40
2023-05-20T14:30:11.562Z,26.30
2023-05-20T14:32:47.564Z,26.40
2023-05-20T14:35:23.515Z,26.20
2023-05-20T14:37:59.812Z,26.30
2023-05-20T14:40:36.087Z,26.30
2023-05-20T14:43:12.250Z,26.30
2023-05-20T14:45:48.993Z,26.10
2023-05-20T14:48:24.932Z,26.30
2023-05-20T14:51:00.832Z,26.50
2023-05-20T14:53:36.773Z,26.40
2023-05-20T14:56:12.698Z,25.80
2023-05-20T14:58:48.602Z,25.90
2023-05-20T15:01:24.586Z,25.60
2023-05-20T15:04:00.798Z,25.40
2023-05-20T15:06:37.134Z,25.60
2023-05-20T15:09:13.055Z,25.50
2023-05-20T15:11:49.269Z,25.50
2023-05-20T15:14:25.203Z,25.50
2023-05-20T15:17:01.164Z,25.60
2023-05-20T15:19:38.953Z,25.80
2023-05-20T15:22:16.522Z,26.00
2023-05-20T15:24:52.566Z,26.00
2023-05-20T15:27:28.466Z,26.00
2023-05-20T15:30:04.957Z,26.10
2023-05-20T15:32:42.686Z,26.10
2023-05-20T15:35:18.764Z,25.80
2023-05-20T15:37:54.730Z,26.10
2023-05-20T15:40:30.648Z,26.40
2023-05-20T15:43:07.889Z,26.60
2023-05-20T15:45:44.755Z,26.70
2023-05-20T15:48:22.105Z,26.80
2023-05-20T15:50:57.974Z,26.70
2023-05-20T15:53:33.879Z,26.40
2023-05-20T15:56:12.264Z,25.90
2023-05-20T15:58:48.623Z,25.10
2023-05-20T16:01:26.880Z,24.80
2023-05-20T16:04:02.849Z,24.80
2023-05-20T16:06:38.858Z,24.70
2023-05-20T16:09:14.794Z,24.90
2023-05-20T16:11:50.759Z,24.90
2023-05-20T16:14:26.688Z,24.90
2023-05-20T16:17:02.595Z,24.70
2023-05-20T16:19:38.602Z,24.70
2023-05-20T16:22:15.712Z,24.90
2023-05-20T16:24:51.636Z,24.40
2023-05-20T16:27:27.699Z,24.10
2023-05-20T16:30:07.416Z,24.00
2023-05-20T16:32:43.649Z,24.20
2023-05-20T16:35:19.616Z,24.40
2023-05-20T16:37:55.670Z,24.60
2023-05-20T16:40:31.938Z,24.70
2023-05-20T16:43:08.023Z,25.00
2023-05-20T16:45:44.167Z,25.00
2023-05-20T16:48:21.375Z,24.80
2023-05-20T16:50:59.739Z,25.10
2023-05-20T16:53:35.955Z,25.00
2023-05-20T16:56:14.942Z,25.60
2023-05-20T16:58:53.002Z,26.00
2023-05-20T17:01:29.504Z,26.10
2023-05-20T17:04:11.198Z,26.50
2023-05-20T17:06:50.146Z,26.70
2023-05-20T17:09:26.265Z,27.20
2023-05-20T17:12:03.751Z,27.40
2023-05-20T17:14:39.861Z,27.70
2023-05-20T17:17:16.471Z,27.80
2023-05-20T17:19:52.983Z,27.80
2023-05-20T17:22:29.032Z,28.30
2023-05-20T17:25:05.961Z,28.50
2023-05-20T17:27:42.033Z,28.60
2023-05-20T17:30:36.141Z,28.70
2023-05-20T17:33:12.722Z,28.90
2023-05-20T17:35:48.871Z,29.00
2023-05-20T17:38:26.456Z,29.10
2023-05-20T17:41:02.408Z,29.30
2023-05-20T17:43:43.087Z,29.40
2023-05-20T17:46:19.287Z,29.60
2023-05-20T17:48:56.816Z,29.50
2023-05-20T17:51:32.884Z,29.70
2023-05-20T17:54:19.576Z,29.90
2023-05-20T17:56:55.763Z,30.00
2023-05-20T17:59:33.832Z,30.10
2023-05-20T18:02:09.983Z,30.40
2023-05-20T18:04:46.203Z,30.50
2023-05-20T18:07:22.385Z,30.80
2023-05-20T18:09:58.496Z,30.80
2023-05-20T18:13:41.976Z,30.80
2023-05-20T18:16:40.080Z,31.00
2023-05-20T18:19:27.837Z,31.30
2023-05-20T18:22:19.712Z,31.40
2023-05-20T18:25:00.863Z,31.60
2023-05-20T18:27:50.861Z,31.70
2023-05-20T18:30:30.325Z,31.80
2023-05-20T18:33:06.748Z,32.00
2023-05-20T18:35:42.982Z,32.10
2023-05-20T18:38:18.973Z,32.20
2023-05-20T18:40:55.129Z,32.40
2023-05-20T18:43:31.185Z,32.40
2023-05-20T18:46:07.326Z,32.60
2023-05-20T18:48:43.351Z,32.60
2023-05-20T18:51:22.357Z,32.90
2023-05-20T18:54:01.109Z,32.90
2023-05-20T18:56:37.497Z,32.90
2023-05-20T18:59:13.652Z,33.20
2023-05-20T19:01:49.562Z,33.30
2023-05-20T19:04:26.091Z,33.50
2023-05-20T19:07:02.537Z,33.60
2023-05-20T19:09:38.458Z,33.60
2023-05-20T19:12:14.443Z,33.70
2023-05-20T19:14:50.469Z,33.80
2023-05-20T19:17:26.587Z,34.00
2023-05-20T19:20:02.620Z,34.10
2023-05-20T19:22:39.330Z,34.10
2023-05-20T19:25:15.645Z,34.30
2023-05-20T19:27:51.578Z,34.30
2023-05-20T19:30:27.626Z,34.30
2023-05-20T19:33:05.169Z,34.50
2023-05-20T19:35:41.277Z,35.00
2023-05-20T19:38:17.344Z,34.70
2023-05-20T19:40:53.271Z,34.80
2023-05-20T19:43:30.483Z,34.80
2023-05-20T19:46:06.730Z,34.80
2023-05-20T19:48:42.652Z,35.10
2023-05-20T19:51:18.643Z,35.10
2023-05-20T19:53:54.652Z,35.10
2023-05-20T19:56:30.668Z,35.20
2023-05-20T19:59:06.956Z,35.30
2023-05-20T20:01:43.161Z,35.40
2023-05-20T20:04:19.342Z,35.40
2023-05-20T20:06:55.589Z,35.50
2023-05-20T20:09:31.509Z,35.70
2023-05-20T20:12:07.757Z,35.70
2023-05-20T20:14:43.622Z,35.80
2023-05-20T20:17:20.705Z,35.80
2023-05-20T20:19:58.794Z,35.80
2023-05-20T20:22:34.764Z,36.00
2023-05-20T20:25:13.794Z,36.00
2023-05-20T20:27:50.060Z,36.00
2023-05-20T20:30:25.984Z,36.00
2023-05-20T20:33:06.162Z,36.10
2023-05-20T20:35:42.629Z,36.10
2023-05-20T20:38:19.721Z,36.10
2023-05-20T20:40:55.938Z,36.20
2023-05-20T20:43:34.907Z,36.20
2023-05-20T20:46:14.805Z,36.30
2023-05-20T20:48:50.722Z,36.50
2023-05-20T20:51:27.109Z,36.40
2023-05-20T20:54:03.233Z,36.50
2023-05-20T20:56:39.765Z,36.70
2023-05-20T20:59:15.892Z,36.70
2023-05-20T21:01:52.807Z,36.80
2023-05-20T21:04:29.066Z,36.80
2023-05-20T21:07:05.277Z,36.80
2023-05-20T21:09:41.629Z,36.90
2023-05-20T21:12:17.558Z,37.00
2023-05-20T21:14:54.574Z,37.20
2023-05-20T21:17:30.589Z,37.40
2023-05-20T21:20:07.608Z,37.50
2023-05-20T21:22:44.010Z,37.60
2023-05-20T21:25:20.026Z,37.70
2023-05-20T21:27:56.096Z,37.80
2023-05-20T21:30:32.777Z,38.00
2023-05-20T21:33:09.808Z,38.00
2023-05-20T21:35:45.912Z,38.10
2023-05-20T21:38:21.852Z,38.10
2023-05-20T21:40:58.709Z,38.40
2023-05-20T21:43:35.933Z,38.40
2023-05-20T21:46:11.951Z,38.50
2023-05-20T21:48:47.848Z,38.60
2023-05-20T21:51:23.782Z,38.70
2023-05-20T21:53:59.663Z,38.90
2023-05-20T21:56:35.534Z,39.00
2023-05-20T21:59:11.423Z,39.10
2023-05-20T22:01:47.470Z,39.10
2023-05-20T22:04:24.698Z,39.30
2023-05-20T22:07:00.825Z,39.40
2023-05-20T22:09:36.684Z,39.50
2023-05-20T22:12:15.253Z,39.50
2023-05-20T22:14:51.182Z,39.60
2023-05-20T22:17:27.217Z,39.80
2023-05-20T22:20:11.142Z,40.00
2023-05-20T22:22:47.506Z,40.10
2023-05-20T22:25:23.415Z,40.20
2023-05-20T22:27:59.360Z,40.40
2023-05-20T22:30:35.558Z,40.50
2023-05-20T22:33:11.961Z,40.60
2023-05-20T22:35:47.849Z,40.80
2023-05-20T22:38:23.925Z,40.80
2023-05-20T22:40:59.807Z,40.90
2023-05-20T22:43:36.689Z,41.10
2023-05-20T22:46:13.200Z,41.20
2023-05-20T22:48:52.797Z,41.30
2023-05-20T22:51:28.760Z,41.50
2023-05-20T22:54:06.682Z,41.70
2023-05-20T22:56:42.676Z,41.80
2023-05-20T22:59:18.584Z,42.00
2023-05-20T23:01:54.503Z,42.10
2023-05-20T23:04:30.500Z,42.30
2023-05-20T23:07:06.430Z,42.40
2023-05-20T23:09:42.325Z,42.70
2023-05-20T23:12:18.253Z,43.10
2023-05-20T23:14:54.153Z,43.40
2023-05-20T23:17:30.157Z,43.50
2023-05-20T23:20:10.826Z,43.90
2023-05-20T23:22:46.817Z,43.90
2023-05-20T23:25:24.322Z,44.10
2023-05-20T23:28:01.034Z,44.30
2023-05-20T23:30:36.969Z,44.70
2023-05-20T23:33:13.068Z,44.80
2023-05-20T23:35:49.033Z,45.00
2023-05-20T23:38:25.078Z,45.10
2023-05-20T23:41:01.089Z,45.30
2023-05-20T23:43:37.005Z,45.40
2023-05-20T23:46:12.959Z,45.70
2023-05-20T23:48:49.805Z,45.80
2023-05-20T23:51:25.860Z,45.90
2023-05-20T23:54:01.855Z,46.00
2023-05-20T23:56:37.735Z,46.50
2023-05-20T23:59:13.599Z,46.70
